Pactola Lake, South Dakota
Current Conditions -  °F | °C
As of 5:58 PM on Monday 20 Oct 2014 (Local Time) from KRCA Reporting Station
Clear Clear  
Wind Chill: 68°   Ceiling: Unl
Heat Index: 68°   Visibility: 9mi
Dew Point: 47°   Wind: 6mph
Humidity: 46%   Direction: 190°S
Pressure: 29.9"   Gusts: NA
Location:  44.07°N, 103.324°W
Report Text: KRCA 202358Z AUTO 19005KT 9SM CLR 20/08 A2990 RMK AO2 SLP121 T02010081 10246 20201 57005 $
Loading
Personal Weather Stations






























Interactive Weather Map
Tropical Storm Tracking
New forecast layout! Learn more

10-Day Weather Forecast

Advertisements
Track Severe Weather on mobile